createdAt,value
2022-08-26T00:01:55.722Z,98997.25
2022-08-26T00:04:25.453Z,98993.03
2022-08-26T00:06:53.922Z,98993.25
2022-08-26T00:09:21.432Z,98993.03
2022-08-26T00:11:48.596Z,98982.78
2022-08-26T00:14:16.233Z,98988.50
2022-08-26T00:16:47.826Z,98980.28
2022-08-26T00:19:20.199Z,98979.38
2022-08-26T00:21:50.379Z,98982.56
2022-08-26T00:24:21.586Z,98980.28
2022-08-26T00:26:49.302Z,98969.25
2022-08-26T00:29:16.040Z,98981.22
2022-08-26T00:31:45.300Z,98968.59
2022-08-26T00:34:12.841Z,98966.88
2022-08-26T00:36:40.926Z,98973.63
2022-08-26T00:39:07.887Z,98970.31
2022-08-26T00:41:39.973Z,98970.97
2022-08-26T00:44:08.051Z,98963.47
2022-08-26T00:46:47.267Z,98974.94
2022-08-26T00:49:30.568Z,98968.47
2022-08-26T00:52:03.576Z,98963.03
2022-08-26T00:54:38.193Z,98963.69
2022-08-26T00:57:16.752Z,98957.09
2022-08-26T00:59:45.393Z,98959.78
2022-08-26T01:02:20.164Z,98953.66
2022-08-26T01:04:52.642Z,98942.28
2022-08-26T01:07:23.460Z,98946.38
2022-08-26T01:09:50.228Z,98947.53
2022-08-26T01:12:17.207Z,98955.25
2022-08-26T01:14:49.614Z,98956.38
2022-08-26T01:17:16.475Z,98960.25
2022-08-26T01:19:51.051Z,98960.25
2022-08-26T01:23:03.336Z,98957.06
2022-08-26T01:25:33.827Z,98953.19
2022-08-26T01:28:07.876Z,98945.47
2022-08-26T01:30:36.775Z,98940.03
2022-08-26T01:33:08.027Z,98932.97
2022-08-26T01:35:34.856Z,98923.19
2022-08-26T01:38:02.332Z,98932.09
2022-08-26T01:40:33.894Z,98927.78
2022-08-26T01:43:02.342Z,98912.91
2022-08-26T01:45:33.354Z,98921.31
2022-08-26T01:48:04.584Z,98920.38
2022-08-26T01:50:37.748Z,98925.38
2022-08-26T01:53:09.762Z,98931.03
2022-08-26T01:55:41.740Z,98917.88
2022-08-26T01:58:26.444Z,98920.91
2022-08-26T02:00:53.182Z,98925.09
2022-08-26T02:03:22.388Z,98907.59
2022-08-26T02:05:58.770Z,98911.13
2022-08-26T02:08:34.896Z,98902.81
2022-08-26T02:11:02.239Z,98894.53
2022-08-26T02:13:31.642Z,98900.66
2022-08-26T02:16:01.049Z,98905.06
2022-08-26T02:18:30.466Z,98908.91
2022-08-26T02:20:57.303Z,98908.09
2022-08-26T02:23:24.715Z,98900.06
2022-08-26T02:26:05.843Z,98892.69
2022-08-26T02:28:38.871Z,98891.91
2022-08-26T02:31:05.900Z,98883.72
2022-08-26T02:33:34.780Z,98888.72
2022-08-26T02:36:05.048Z,98879.81
2022-08-26T02:38:34.836Z,98881.28
2022-08-26T02:41:04.980Z,98880.50
2022-08-26T02:43:34.789Z,98877.31
2022-08-26T02:46:02.295Z,98881.16
2022-08-26T02:48:30.293Z,98876.44
2022-08-26T02:50:59.255Z,98873.63
2022-08-26T02:53:28.051Z,98868.16
2022-08-26T02:55:58.743Z,98864.84
2022-08-26T02:58:26.519Z,98874.94
2022-08-26T03:00:53.906Z,98873.34
2022-08-26T03:03:23.504Z,98878.50
2022-08-26T03:05:50.600Z,98883.06
2022-08-26T03:08:18.083Z,98888.22
2022-08-26T03:10:46.576Z,98885.69
2022-08-26T03:13:15.614Z,98884.09
2022-08-26T03:15:42.260Z,98878.50
2022-08-26T03:18:09.571Z,98879.31
2022-08-26T03:20:37.043Z,98882.50
2022-08-26T03:23:03.730Z,98887.00
2022-08-26T03:25:31.042Z,98899.22
2022-08-26T03:27:57.724Z,98908.38
2022-08-26T03:30:45.459Z,98905.84
2022-08-26T03:33:13.753Z,98914.53
2022-08-26T03:35:43.751Z,98918.41
2022-08-26T03:38:10.964Z,98905.13
2022-08-26T03:40:39.260Z,98900.81
2022-08-26T03:43:09.826Z,98902.78
2022-08-26T03:45:37.670Z,98897.66
2022-08-26T03:48:05.093Z,98896.88
2022-08-26T03:50:37.598Z,98896.22
2022-08-26T03:53:07.503Z,98898.47
2022-08-26T03:55:41.900Z,98895.28
2022-08-26T03:58:12.062Z,98899.09
2022-08-26T04:00:38.861Z,98906.47
2022-08-26T04:03:05.920Z,98907.13
2022-08-26T04:05:37.376Z,98926.00
2022-08-26T04:08:06.232Z,98915.81
2022-08-26T04:10:32.929Z,98915.81
2022-08-26T04:13:02.589Z,98924.13
2022-08-26T04:15:31.512Z,98910.06
2022-08-26T04:17:58.329Z,98903.34
2022-08-26T04:20:26.205Z,98901.84
2022-08-26T04:22:52.974Z,98901.84
2022-08-26T04:25:20.536Z,98897.69
2022-08-26T04:27:47.466Z,98903.94
2022-08-26T04:30:15.846Z,98901.06
2022-08-26T04:32:43.521Z,98900.63
2022-08-26T04:35:10.355Z,98898.81
2022-08-26T04:37:37.556Z,98895.63
2022-08-26T04:40:05.938Z,98894.81
2022-08-26T04:42:33.484Z,98891.44
2022-08-26T04:45:01.096Z,98893.53
2022-08-26T04:47:32.105Z,98894.31
2022-08-26T04:50:00.315Z,98884.88
2022-08-26T04:52:28.997Z,98873.16
2022-08-26T04:54:55.621Z,98869.78
2022-08-26T04:57:23.380Z,98864.16
2022-08-26T04:59:50.042Z,98859.00
2022-08-26T05:02:16.775Z,98856.06
2022-08-26T05:04:43.729Z,98853.63
2022-08-26T05:07:10.847Z,98856.16
2022-08-26T05:09:40.372Z,98810.50
2022-08-26T05:12:07.404Z,98798.75
2022-08-26T05:14:36.085Z,98776.56
2022-08-26T05:17:04.730Z,98717.50
2022-08-26T05:19:31.673Z,98700.78
2022-08-26T05:22:02.120Z,98653.59
2022-08-26T05:24:30.264Z,98634.06
2022-08-26T05:26:57.335Z,98597.81
2022-08-26T05:29:26.435Z,98560.59
2022-08-26T05:31:53.523Z,98542.94
2022-08-26T05:34:22.739Z,98521.50
2022-08-26T05:36:52.688Z,98488.03
2022-08-26T05:39:19.713Z,98469.09
2022-08-26T05:41:46.448Z,98412.56
2022-08-26T05:44:15.867Z,98375.72
2022-08-26T05:46:44.830Z,98355.03
2022-08-26T05:49:14.554Z,98320.13
2022-08-26T05:51:45.251Z,98314.28
2022-08-26T05:54:13.284Z,98306.53
2022-08-26T05:56:40.104Z,98303.91
2022-08-26T05:59:14.639Z,98329.63
2022-08-26T06:01:42.628Z,98310.84
2022-08-26T06:04:10.296Z,98300.28
2022-08-26T06:06:41.238Z,98278.13
2022-08-26T06:09:11.063Z,98262.94
2022-08-26T06:11:38.914Z,98265.56
2022-08-26T06:14:07.789Z,98258.13
2022-08-26T06:16:38.694Z,98246.03
2022-08-26T06:19:11.530Z,98240.16
2022-08-26T06:21:40.467Z,98230.41
2022-08-26T06:24:31.177Z,98221.59
2022-08-26T06:27:04.360Z,98218.53
2022-08-26T06:29:34.545Z,98219.19
2022-08-26T06:32:03.876Z,98209.66
2022-08-26T06:34:30.968Z,98205.22
2022-08-26T06:37:01.952Z,98222.19
2022-08-26T06:39:32.605Z,98224.38
2022-08-26T06:42:00.416Z,98232.09
2022-08-26T06:44:29.519Z,98260.31
2022-08-26T06:46:56.168Z,98280.75
2022-08-26T06:49:27.468Z,98288.91
2022-08-26T06:52:00.340Z,98320.56
2022-08-26T06:54:32.192Z,98329.38
2022-08-26T06:56:59.105Z,98367.09
2022-08-26T06:59:26.176Z,98402.03
2022-08-26T07:01:53.500Z,98417.91
2022-08-26T07:04:22.376Z,98476.63
2022-08-26T07:06:52.666Z,98496.09
2022-08-26T07:09:22.058Z,98524.03
2022-08-26T07:11:49.801Z,98565.69
2022-08-26T07:14:19.326Z,98572.16
2022-08-26T07:16:48.420Z,98607.06
2022-08-26T07:19:15.733Z,98618.66
2022-08-26T07:21:44.348Z,98629.25
2022-08-26T07:24:11.536Z,98645.47
2022-08-26T07:26:42.836Z,98619.00
2022-08-26T07:29:12.493Z,98629.69
2022-08-26T07:31:42.750Z,98618.47
2022-08-26T07:34:10.632Z,98659.28
2022-08-26T07:36:37.310Z,98662.53
2022-08-26T07:39:04.707Z,98662.59
2022-08-26T07:41:31.463Z,98662.22
2022-08-26T07:43:58.913Z,98657.38
2022-08-26T07:46:27.513Z,98674.56
2022-08-26T07:48:58.517Z,98692.00
2022-08-26T07:51:28.073Z,98700.69
2022-08-26T07:53:55.499Z,98708.63
2022-08-26T07:56:23.454Z,98722.59
2022-08-26T07:58:53.845Z,98741.03
2022-08-26T08:01:23.988Z,98743.06
2022-08-26T08:03:51.889Z,98754.91
2022-08-26T08:06:20.128Z,98763.19
2022-08-26T08:08:47.432Z,98740.59
2022-08-26T08:11:14.757Z,98779.91
2022-08-26T08:13:41.795Z,98794.13
2022-08-26T08:16:12.447Z,98793.44
2022-08-26T08:18:42.253Z,98838.94
2022-08-26T08:21:21.350Z,98836.69
2022-08-26T08:23:51.909Z,98843.88
2022-08-26T08:26:18.884Z,98863.44
2022-08-26T08:28:48.803Z,98869.88
2022-08-26T08:34:21.465Z,98921.75
2022-08-26T08:36:49.023Z,98906.97
2022-08-26T08:39:19.219Z,98908.28
2022-08-26T08:42:11.848Z,98934.88
2022-08-26T08:44:51.925Z,98924.00
2022-08-26T08:47:48.296Z,98930.88
2022-08-26T08:50:48.113Z,98959.47
2022-08-26T08:53:30.913Z,98950.94
2022-08-26T08:56:24.832Z,98947.97
2022-08-26T08:58:57.449Z,98971.91
2022-08-26T09:01:45.036Z,98977.44
2022-08-26T09:04:37.480Z,98962.59
2022-08-26T09:07:08.876Z,98968.28
2022-08-26T09:09:41.842Z,98989.53
2022-08-26T09:12:14.952Z,99001.81
2022-08-26T09:14:45.821Z,98995.63
2022-08-26T09:17:35.605Z,99000.06
2022-08-26T09:20:25.983Z,99026.09
2022-08-26T09:22:53.280Z,99045.78
2022-08-26T09:25:22.286Z,99041.13
2022-08-26T09:27:53.491Z,99047.53
2022-08-26T09:30:35.358Z,99063.34
2022-08-26T09:33:11.587Z,99072.03
2022-08-26T09:35:41.240Z,99108.91
2022-08-26T09:38:28.011Z,99083.00
2022-08-26T09:41:01.803Z,99068.84
2022-08-26T09:43:29.291Z,99074.09
2022-08-26T09:46:15.300Z,99082.44
2022-08-26T09:48:43.300Z,99096.75
2022-08-26T09:51:26.514Z,99110.19
2022-08-26T09:53:59.023Z,99116.53
2022-08-26T09:56:34.760Z,99115.03
2022-08-26T09:59:02.952Z,99125.66
2022-08-26T10:01:42.175Z,99145.44
2022-08-26T10:04:14.088Z,99132.38
2022-08-26T10:06:57.240Z,99122.91
2022-08-26T10:09:25.887Z,99134.75
2022-08-26T10:11:59.119Z,99138.34
2022-08-26T10:14:37.544Z,99155.78
2022-08-26T10:17:14.570Z,99206.69
2022-08-26T10:19:57.091Z,99201.13
2022-08-26T10:22:50.155Z,99193.31
2022-08-26T10:25:24.621Z,99228.03
2022-08-26T10:28:19.520Z,99209.09
2022-08-26T10:31:04.619Z,99207.84
2022-08-26T10:33:33.638Z,99205.81
2022-08-26T10:36:06.499Z,99186.03
2022-08-26T10:38:37.742Z,99167.63
2022-08-26T10:41:24.351Z,99159.78
2022-08-26T10:43:56.401Z,99153.16
2022-08-26T10:46:31.379Z,99175.31
2022-08-26T10:49:06.960Z,99182.03
2022-08-26T10:51:51.655Z,99180.50
2022-08-26T10:54:40.817Z,99187.66
2022-08-26T10:57:25.612Z,99196.72
2022-08-26T11:00:34.993Z,99190.13
2022-08-26T11:03:32.655Z,99177.50
2022-08-26T11:06:21.779Z,99187.41
2022-08-26T11:08:54.209Z,99202.03
2022-08-26T11:11:40.792Z,99225.34
2022-08-26T11:14:10.971Z,99225.38
2022-08-26T11:16:42.850Z,99228.16
2022-08-26T11:19:45.653Z,99236.88
2022-08-26T11:22:31.246Z,99244.78
2022-08-26T11:24:57.948Z,99251.09
2022-08-26T11:27:26.032Z,99281.84
2022-08-26T11:30:14.089Z,99258.97
2022-08-26T11:32:41.253Z,99241.59
2022-08-26T11:35:17.112Z,99248.66
2022-08-26T11:38:04.287Z,99249.50
2022-08-26T11:40:33.697Z,99246.31
2022-08-26T11:43:12.289Z,99250.28
2022-08-26T11:45:42.493Z,99242.03
2022-08-26T11:48:28.289Z,99225.78
2022-08-26T11:51:09.859Z,99216.34
2022-08-26T11:53:40.876Z,99216.72
2022-08-26T11:56:26.088Z,99225.75
2022-08-26T11:58:58.357Z,99232.91
2022-08-26T12:01:31.410Z,99236.91
2022-08-26T12:03:59.728Z,99240.81
2022-08-26T12:06:44.983Z,99251.09
2022-08-26T12:09:21.181Z,99259.38
2022-08-26T12:11:48.048Z,99245.50
2022-08-26T12:14:27.698Z,99242.34
2022-08-26T12:16:54.888Z,99230.50
2022-08-26T12:19:27.449Z,99201.66
2022-08-26T12:22:06.688Z,99199.72
2022-08-26T12:24:33.629Z,99202.94
2022-08-26T12:27:14.438Z,99220.28
2022-08-26T12:29:43.700Z,99207.69
2022-08-26T12:32:18.436Z,99210.06
2022-08-26T12:34:49.128Z,99203.69
2022-08-26T12:37:16.305Z,99196.22
2022-08-26T12:39:45.807Z,99206.13
2022-08-26T12:42:12.359Z,99211.22
2022-08-26T12:44:54.207Z,99214.00
2022-08-26T12:47:35.149Z,99210.44
2022-08-26T12:50:19.626Z,99207.69
2022-08-26T12:53:09.722Z,99214.81
2022-08-26T12:55:41.174Z,99212.44
2022-08-26T12:58:16.674Z,99191.06
2022-08-26T13:00:56.617Z,99195.88
2022-08-26T13:03:35.268Z,99206.13
2022-08-26T13:06:16.031Z,99202.94
2022-08-26T13:08:55.195Z,99198.97
2022-08-26T13:11:31.586Z,99201.31
2022-08-26T13:14:06.947Z,99204.41
2022-08-26T13:16:34.938Z,99191.84
2022-08-26T13:19:10.467Z,99185.53
2022-08-26T13:21:58.484Z,99188.63
2022-08-26T13:24:35.641Z,99171.69
2022-08-26T13:27:03.501Z,99173.25
2022-08-26T13:29:30.184Z,99148.31
2022-08-26T13:31:58.231Z,99150.72
2022-08-26T13:34:25.280Z,99161.81
2022-08-26T13:36:55.250Z,99167.31
2022-08-26T13:39:22.911Z,99163.75
2022-08-26T13:41:50.017Z,99161.81
2022-08-26T13:44:17.223Z,99157.03
2022-08-26T13:49:12.373Z,99150.34
2022-08-26T13:51:39.971Z,99138.88
2022-08-26T13:54:07.314Z,99133.34
2022-08-26T13:56:34.956Z,99136.91
2022-08-26T13:59:03.184Z,99132.56
2022-08-26T14:01:31.443Z,99088.31
2022-08-26T14:03:58.453Z,99089.09
2022-08-26T14:06:25.661Z,99095.44
2022-08-26T14:08:52.337Z,99107.66
2022-08-26T14:11:21.473Z,99111.63
2022-08-26T14:13:48.209Z,99108.88
2022-08-26T14:16:25.941Z,99089.88
2022-08-26T14:18:53.566Z,99084.34
2022-08-26T14:21:20.940Z,99110.84
2022-08-26T14:23:47.824Z,99111.63
2022-08-26T14:26:28.747Z,99129.81
2022-08-26T14:29:00.039Z,99115.97
2022-08-26T14:31:29.427Z,99118.34
2022-08-26T14:34:00.176Z,99093.84
2022-08-26T14:36:31.955Z,99092.25
2022-08-26T14:39:11.589Z,99104.91
2022-08-26T14:41:53.709Z,99081.19
2022-08-26T14:44:33.277Z,99088.69
2022-08-26T14:47:02.441Z,99106.50
2022-08-26T14:49:31.808Z,99130.22
2022-08-26T14:51:59.477Z,99128.53
2022-08-26T14:54:26.107Z,99149.91
2022-08-26T14:56:59.428Z,99164.56
2022-08-26T14:59:29.460Z,99151.91
2022-08-26T15:01:59.236Z,99116.72
2022-08-26T15:04:28.451Z,99108.81
2022-08-26T15:06:56.868Z,99120.63
2022-08-26T15:09:24.480Z,99143.63
2022-08-26T15:11:53.110Z,99132.19
2022-08-26T15:14:21.213Z,99132.94
2022-08-26T15:16:55.882Z,99129.38
2022-08-26T15:19:24.476Z,99131.81
2022-08-26T15:21:51.972Z,99124.69
2022-08-26T15:24:21.020Z,99120.69
2022-08-26T15:26:48.377Z,99110.06
2022-08-26T15:29:15.435Z,99091.47
2022-08-26T15:31:43.132Z,99091.44
2022-08-26T15:34:16.015Z,99090.53
2022-08-26T15:36:45.018Z,99113.56
2022-08-26T15:39:11.954Z,99099.75
2022-08-26T15:41:38.863Z,99106.81
2022-08-26T15:44:07.332Z,99089.75
2022-08-26T15:46:35.056Z,99077.03
2022-08-26T15:49:03.796Z,99074.66
2022-08-26T15:51:45.408Z,99060.06
2022-08-26T15:54:14.054Z,99057.31
2022-08-26T15:56:40.724Z,99057.69
2022-08-26T15:59:11.402Z,99041.47
2022-08-26T16:01:41.312Z,99020.91
2022-08-26T16:04:07.957Z,99020.91
2022-08-26T16:06:37.048Z,99007.91
2022-08-26T16:09:04.941Z,98997.22
2022-08-26T16:11:31.564Z,98991.63
2022-08-26T16:13:58.451Z,99010.63
2022-08-26T16:16:25.117Z,99014.63
2022-08-26T16:18:52.328Z,99007.50
2022-08-26T16:21:22.176Z,99020.94
2022-08-26T16:23:48.884Z,99020.16
2022-08-26T16:26:23.939Z,99005.94
2022-08-26T16:28:50.632Z,98987.00
2022-08-26T16:31:19.508Z,98945.84
2022-08-26T16:33:46.326Z,98924.50
2022-08-26T16:36:14.148Z,98916.59
2022-08-26T16:38:41.737Z,98899.69
2022-08-26T16:41:08.637Z,98902.84
2022-08-26T16:43:35.716Z,98898.47
2022-08-26T16:46:04.928Z,98882.66
2022-08-26T16:48:31.639Z,98879.09
2022-08-26T16:51:00.460Z,98884.25
2022-08-26T16:53:27.086Z,98886.63
2022-08-26T16:55:53.728Z,98884.28
2022-08-26T16:58:22.090Z,98866.91
2022-08-26T17:00:49.197Z,98862.97
2022-08-26T17:03:16.031Z,98859.81
2022-08-26T17:05:45.132Z,98863.00
2022-08-26T17:08:14.524Z,98857.47
2022-08-26T17:10:51.774Z,98856.72
2022-08-26T17:13:35.108Z,98843.00
2022-08-26T17:16:04.982Z,98776.31
2022-08-26T17:18:33.507Z,98784.97
2022-08-26T17:21:03.195Z,98766.84
2022-08-26T17:23:29.961Z,98732.94
2022-08-26T17:25:56.828Z,98751.84
2022-08-26T17:28:23.472Z,98757.38
2022-08-26T17:30:50.195Z,98758.19
2022-08-26T17:33:17.267Z,98724.28
2022-08-26T17:35:48.897Z,98729.81
2022-08-26T17:38:15.555Z,98737.66
2022-08-26T17:40:42.262Z,98732.16
2022-08-26T17:43:12.170Z,98693.09
2022-08-26T17:45:40.501Z,98638.69
2022-08-26T17:48:08.264Z,98637.53
2022-08-26T17:50:35.785Z,98644.63
2022-08-26T17:53:02.523Z,98637.50
2022-08-26T17:55:29.263Z,98595.75
2022-08-26T17:57:55.999Z,98594.97
2022-08-26T18:00:26.608Z,98599.69
2022-08-26T18:02:54.812Z,98598.91
2022-08-26T18:05:22.385Z,98602.03
2022-08-26T18:07:51.488Z,98556.34
2022-08-26T18:10:20.369Z,98525.63
2022-08-26T18:12:47.544Z,98521.69
2022-08-26T18:15:16.515Z,98524.84
2022-08-26T18:17:44.024Z,98527.19
2022-08-26T18:20:15.413Z,98530.34
2022-08-26T18:22:43.411Z,98515.34
2022-08-26T18:25:10.316Z,98500.41
2022-08-26T18:27:38.012Z,98533.47
2022-08-26T18:30:11.350Z,98544.47
2022-08-26T18:32:42.217Z,98498.34
2022-08-26T18:35:09.608Z,98480.25
2022-08-26T18:37:36.351Z,98498.78
2022-08-26T18:40:04.835Z,98506.28
2022-08-26T18:42:31.579Z,98511.41
2022-08-26T18:44:58.328Z,98518.09
2022-08-26T18:47:24.995Z,98514.56
2022-08-26T18:49:51.632Z,98517.31
2022-08-26T18:52:19.985Z,98507.47
2022-08-26T18:54:46.795Z,98491.34
2022-08-26T18:57:15.755Z,98477.94
2022-08-26T18:59:42.414Z,98478.75
2022-08-26T19:02:09.833Z,98477.22
2022-08-26T19:04:38.709Z,98472.09
2022-08-26T19:07:06.284Z,98471.28
2022-08-26T19:09:33.423Z,98458.31
2022-08-26T19:12:01.618Z,98457.13
2022-08-26T19:14:28.699Z,98448.47
2022-08-26T19:16:55.746Z,98442.56
2022-08-26T19:19:25.786Z,98427.19
2022-08-26T19:21:53.161Z,98424.81
2022-08-26T19:24:20.575Z,98421.25
2022-08-26T19:26:58.632Z,98418.94
2022-08-26T19:29:28.894Z,98395.72
2022-08-26T19:31:55.941Z,98395.72
2022-08-26T19:34:22.945Z,98386.25
2022-08-26T19:36:51.884Z,98390.94
2022-08-26T19:39:19.114Z,98393.69
2022-08-26T19:41:46.153Z,98390.56
2022-08-26T19:44:35.860Z,98401.97
2022-08-26T19:47:03.839Z,98405.91
2022-08-26T19:49:32.204Z,98409.84
2022-08-26T19:51:59.647Z,98423.22
2022-08-26T19:54:27.357Z,98404.72
2022-08-26T19:56:54.755Z,98402.75
2022-08-26T19:59:21.442Z,98405.13
2022-08-26T20:02:00.466Z,98402.38
2022-08-26T20:04:30.180Z,98407.09
2022-08-26T20:07:00.364Z,98401.19
2022-08-26T20:09:30.840Z,98403.53
2022-08-26T20:11:57.516Z,98391.72
2022-08-26T20:14:25.605Z,98392.13
2022-08-26T20:16:52.327Z,98400.41
2022-08-26T20:19:38.627Z,98408.28
2022-08-26T20:22:05.787Z,98413.38
2022-08-26T20:24:33.434Z,98425.59
2022-08-26T20:27:03.246Z,98423.22
2022-08-26T20:29:32.708Z,98413.78
2022-08-26T20:31:59.418Z,98405.94
2022-08-26T20:34:26.467Z,98394.91
2022-08-26T20:36:53.198Z,98395.66
2022-08-26T20:39:21.192Z,98390.94
2022-08-26T20:41:48.599Z,98387.00
2022-08-26T20:44:16.725Z,98386.22
2022-08-26T20:46:43.928Z,98385.03
2022-08-26T20:49:10.884Z,98378.34
2022-08-26T20:51:38.827Z,98386.22
2022-08-26T20:54:07.128Z,98389.75
2022-08-26T20:56:34.640Z,98383.84
2022-08-26T20:59:02.495Z,98391.34
2022-08-26T21:01:34.627Z,98398.41
2022-08-26T21:04:04.535Z,98409.06
2022-08-26T21:06:33.881Z,98413.00
2022-08-26T21:09:01.676Z,98419.28
2022-08-26T21:11:29.246Z,98420.47
2022-08-26T21:14:06.990Z,98416.16
2022-08-26T21:16:44.111Z,98403.53
2022-08-26T21:19:13.900Z,98387.00
2022-08-26T21:21:42.827Z,98372.44
2022-08-26T21:24:09.675Z,98360.63
2022-08-26T21:26:37.071Z,98359.44
2022-08-26T21:29:04.303Z,98365.75
2022-08-26T21:31:32.203Z,98378.75
2022-08-26T21:33:59.898Z,98391.72
2022-08-26T21:36:26.852Z,98400.41
2022-08-26T21:38:56.788Z,98399.59
2022-08-26T21:41:23.946Z,98395.66
2022-08-26T21:43:55.692Z,98374.03
2022-08-26T21:46:24.709Z,98354.72
2022-08-26T21:48:55.223Z,98348.81
2022-08-26T21:51:24.616Z,98356.34
2022-08-26T21:53:53.027Z,98350.41
2022-08-26T21:56:21.159Z,98351.97
2022-08-26T21:58:47.915Z,98342.91
2022-08-26T22:01:18.069Z,98319.34
2022-08-26T22:03:47.432Z,98293.38
2022-08-26T22:06:20.760Z,98254.00
2022-08-26T22:08:47.672Z,98242.59
2022-08-26T22:11:15.644Z,98232.81
2022-08-26T22:13:43.767Z,98196.28
2022-08-26T22:16:10.603Z,98166.78
2022-08-26T22:18:38.945Z,98136.94
2022-08-26T22:21:08.769Z,98116.50
2022-08-26T22:23:36.863Z,98097.28
2022-08-26T22:26:07.864Z,98078.81
2022-08-26T22:28:35.622Z,98056.41
2022-08-26T22:31:04.836Z,98041.09
2022-08-26T22:33:31.512Z,98030.88
2022-08-26T22:35:58.108Z,98023.81
2022-08-26T22:38:24.992Z,98006.53
2022-08-26T22:40:56.072Z,98001.81
2022-08-26T22:43:24.826Z,97989.22
2022-08-26T22:45:53.170Z,97979.00
2022-08-26T22:48:23.828Z,97968.00
2022-08-26T22:50:59.577Z,97964.06
2022-08-26T22:53:26.847Z,97949.94
2022-08-26T22:55:54.287Z,97933.44
2022-08-26T22:58:21.652Z,97925.59
2022-08-26T23:00:57.844Z,97908.28
2022-08-26T23:03:26.775Z,97905.13
2022-08-26T23:05:53.704Z,97889.81
2022-08-26T23:08:21.012Z,97887.81
2022-08-26T23:10:49.380Z,97884.69
2022-08-26T23:13:16.577Z,97882.34
2022-08-26T23:15:44.779Z,97873.72
2022-08-26T23:18:12.836Z,97864.28
2022-08-26T23:20:40.200Z,97873.72
2022-08-26T23:23:07.512Z,97862.72
2022-08-26T23:25:34.424Z,97852.50
2022-08-26T23:28:02.691Z,97847.00
2022-08-26T23:30:31.508Z,97838.38
2022-08-26T23:32:58.625Z,97832.09
2022-08-26T23:35:25.920Z,97825.41
2022-08-26T23:37:53.460Z,97814.78
2022-08-26T23:40:27.979Z,97821.44
2022-08-26T23:42:56.637Z,97826.16
2022-08-26T23:45:27.159Z,97826.19
2022-08-26T23:47:54.621Z,97818.28
2022-08-26T23:50:49.984Z,97810.03
2022-08-26T23:53:21.191Z,97805.72
2022-08-26T23:55:50.797Z,97807.69
2022-08-26T23:58:19.068Z,97805.31
